createdAt,value
2023-09-09T00:00:13.804Z,100.00
2023-09-09T00:02:46.331Z,100.00
2023-09-09T00:05:18.589Z,100.00
2023-09-09T00:07:45.246Z,100.00
2023-09-09T00:10:18.294Z,100.00
2023-09-09T00:12:57.940Z,100.00
2023-09-09T00:15:24.698Z,100.00
2023-09-09T00:17:54.530Z,100.00
2023-09-09T00:20:30.337Z,100.00
2023-09-09T00:23:09.199Z,100.00
2023-09-09T00:25:45.512Z,100.00
2023-09-09T00:28:18.743Z,100.00
2023-09-09T00:30:47.910Z,100.00
2023-09-09T00:33:17.580Z,100.00
2023-09-09T00:35:44.227Z,100.00
2023-09-09T00:38:18.134Z,100.00
2023-09-09T00:40:51.909Z,100.00
2023-09-09T00:43:21.692Z,100.00
2023-09-09T00:45:54.673Z,100.00
2023-09-09T00:48:27.143Z,100.00
2023-09-09T00:50:57.878Z,100.00
2023-09-09T00:53:25.153Z,100.00
2023-09-09T00:56:02.545Z,100.00
2023-09-09T00:58:41.627Z,100.00
2023-09-09T01:01:13.734Z,100.00
2023-09-09T01:03:40.593Z,100.00
2023-09-09T01:06:10.567Z,100.00
2023-09-09T01:08:39.794Z,100.00
2023-09-09T01:11:14.202Z,100.00
2023-09-09T01:13:44.449Z,100.00
2023-09-09T01:16:12.075Z,100.00
2023-09-09T01:18:43.562Z,100.00
2023-09-09T01:21:16.465Z,100.00
2023-09-09T01:23:53.142Z,100.00
2023-09-09T01:26:25.568Z,100.00
2023-09-09T01:28:54.862Z,100.00
2023-09-09T01:31:24.787Z,100.00
2023-09-09T01:33:59.792Z,100.00
2023-09-09T01:36:32.320Z,100.00
2023-09-09T01:39:01.948Z,100.00
2023-09-09T01:41:33.833Z,100.00
2023-09-09T01:44:08.989Z,100.00
2023-09-09T01:46:41.428Z,100.00
2023-09-09T01:49:16.542Z,100.00
2023-09-09T01:51:46.134Z,100.00
2023-09-09T01:54:20.926Z,100.00
2023-09-09T01:56:50.430Z,100.00
2023-09-09T01:59:22.839Z,100.00
2023-09-09T02:01:52.843Z,100.00
2023-09-09T02:04:22.556Z,100.00
2023-09-09T02:06:54.883Z,100.00
2023-09-09T02:09:27.314Z,100.00
2023-09-09T02:12:00.074Z,100.00
2023-09-09T02:14:35.597Z,100.00
2023-09-09T02:17:13.156Z,100.00
2023-09-09T02:19:45.224Z,100.00
2023-09-09T02:22:19.005Z,100.00
2023-09-09T02:25:09.498Z,100.00
2023-09-09T02:27:39.676Z,100.00
2023-09-09T02:30:09.847Z,100.00
2023-09-09T02:32:45.115Z,100.00
2023-09-09T02:35:14.980Z,100.00
2023-09-09T02:37:50.189Z,100.00
2023-09-09T02:40:20.238Z,100.00
2023-09-09T02:42:55.323Z,100.00
2023-09-09T02:45:27.909Z,100.00
2023-09-09T02:47:57.647Z,100.00
2023-09-09T02:50:35.800Z,100.00
2023-09-09T02:53:05.615Z,100.00
2023-09-09T02:55:35.666Z,100.00
2023-09-09T02:58:04.732Z,100.00
2023-09-09T03:00:34.794Z,100.00
2023-09-09T03:03:04.725Z,100.00
2023-09-09T03:05:46.327Z,100.00
2023-09-09T03:08:18.270Z,100.00
2023-09-09T03:10:50.761Z,100.00
2023-09-09T03:13:17.677Z,100.00
2023-09-09T03:15:47.521Z,100.00
2023-09-09T03:18:19.398Z,100.00
2023-09-09T03:20:48.895Z,100.00
2023-09-09T03:23:18.355Z,100.00
2023-09-09T03:25:53.614Z,100.00
2023-09-09T03:28:21.619Z,100.00
2023-09-09T03:31:00.307Z,100.00
2023-09-09T03:33:32.354Z,100.00
2023-09-09T03:36:02.047Z,100.00
2023-09-09T03:38:34.188Z,100.00
2023-09-09T03:41:03.768Z,100.00
2023-09-09T03:43:38.282Z,100.00
2023-09-09T03:46:11.274Z,100.00
2023-09-09T03:48:50.369Z,100.00
2023-09-09T03:51:18.611Z,100.00
2023-09-09T03:53:48.333Z,100.00
2023-09-09T03:56:19.450Z,100.00
2023-09-09T03:58:49.217Z,100.00
2023-09-09T04:01:18.402Z,100.00
2023-09-09T04:03:52.361Z,100.00
2023-09-09T04:06:23.820Z,100.00
2023-09-09T04:08:59.273Z,100.00
2023-09-09T04:11:31.754Z,100.00
2023-09-09T04:14:07.352Z,100.00
2023-09-09T04:16:40.057Z,100.00
2023-09-09T04:19:08.895Z,100.00
2023-09-09T04:21:41.211Z,100.00
2023-09-09T04:24:16.509Z,100.00
2023-09-09T04:26:47.119Z,100.00
2023-09-09T04:29:19.630Z,100.00
2023-09-09T04:31:53.494Z,100.00
2023-09-09T04:34:22.825Z,100.00
2023-09-09T04:36:54.847Z,100.00
2023-09-09T04:39:35.455Z,100.00
2023-09-09T04:42:07.852Z,100.00
2023-09-09T04:44:43.463Z,100.00
2023-09-09T04:47:13.506Z,100.00
2023-09-09T04:49:44.138Z,100.00
2023-09-09T04:52:19.876Z,100.00
2023-09-09T04:54:50.612Z,100.00
2023-09-09T04:57:21.879Z,100.00
2023-09-09T04:59:51.720Z,100.00
2023-09-09T05:02:22.294Z,100.00
2023-09-09T05:04:56.245Z,100.00
2023-09-09T05:07:27.135Z,100.00
2023-09-09T05:09:54.127Z,100.00
2023-09-09T05:12:26.717Z,100.00
2023-09-09T05:14:57.252Z,100.00
2023-09-09T05:17:29.205Z,100.00
2023-09-09T05:20:04.329Z,100.00
2023-09-09T05:22:42.539Z,100.00
2023-09-09T05:25:14.961Z,100.00
2023-09-09T05:27:42.349Z,100.00
2023-09-09T05:30:14.274Z,100.00
2023-09-09T05:32:46.849Z,100.00
2023-09-09T05:35:25.188Z,100.00
2023-09-09T05:38:00.300Z,100.00
2023-09-09T05:40:27.231Z,100.00
2023-09-09T05:42:57.157Z,100.00
2023-09-09T05:45:30.352Z,100.00
2023-09-09T05:48:02.762Z,100.00
2023-09-09T05:50:32.476Z,100.00
2023-09-09T05:53:02.675Z,100.00
2023-09-09T05:55:36.287Z,100.00
2023-09-09T05:58:05.577Z,100.00
2023-09-09T06:00:40.688Z,100.00
2023-09-09T06:03:12.724Z,100.00
2023-09-09T06:05:44.822Z,100.00
2023-09-09T06:08:17.290Z,100.00
2023-09-09T06:10:50.177Z,100.00
2023-09-09T06:13:25.036Z,100.00
2023-09-09T06:15:55.193Z,100.00
2023-09-09T06:18:29.336Z,100.00
2023-09-09T06:21:07.275Z,100.00
2023-09-09T06:23:37.053Z,100.00
2023-09-09T06:26:04.126Z,100.00
2023-09-09T06:28:36.096Z,100.00
2023-09-09T06:31:08.613Z,100.00
2023-09-09T06:33:41.939Z,100.00
2023-09-09T06:36:17.581Z,100.00
2023-09-09T06:38:50.265Z,100.00
2023-09-09T06:41:23.984Z,100.00
2023-09-09T06:43:56.632Z,100.00
2023-09-09T06:46:25.698Z,100.00
2023-09-09T06:49:02.884Z,100.00
2023-09-09T06:51:34.821Z,100.00
2023-09-09T06:54:10.192Z,100.00
2023-09-09T06:56:43.658Z,100.00
2023-09-09T06:59:19.104Z,100.00
2023-09-09T07:01:49.736Z,100.00
2023-09-09T07:04:19.444Z,100.00
2023-09-09T07:07:11.416Z,100.00
2023-09-09T07:09:45.722Z,100.00
2023-09-09T07:12:17.250Z,100.00
2023-09-09T07:14:44.226Z,100.00
2023-09-09T07:17:16.595Z,100.00
2023-09-09T07:19:48.864Z,100.00
2023-09-09T07:22:19.770Z,100.00
2023-09-09T07:24:55.244Z,100.00
2023-09-09T07:27:25.301Z,100.00
2023-09-09T07:29:57.557Z,100.00
2023-09-09T07:32:24.049Z,100.00
2023-09-09T07:34:51.229Z,100.00
2023-09-09T07:37:18.551Z,100.00
2023-09-09T07:39:54.540Z,100.00
2023-09-09T07:42:21.095Z,100.00
2023-09-09T07:44:47.717Z,100.00
2023-09-09T07:47:22.162Z,100.00
2023-09-09T07:49:49.356Z,100.00
2023-09-09T07:52:21.255Z,100.00
2023-09-09T07:54:50.314Z,100.00
2023-09-09T07:57:20.219Z,100.00
2023-09-09T07:59:52.439Z,100.00
2023-09-09T08:02:23.055Z,100.00
2023-09-09T08:04:54.710Z,100.00
2023-09-09T08:07:24.072Z,100.00
2023-09-09T08:09:54.541Z,100.00
2023-09-09T08:12:24.190Z,100.00
2023-09-09T08:15:11.388Z,100.00
2023-09-09T08:17:42.090Z,99.62
2023-09-09T08:20:12.193Z,99.18
2023-09-09T08:22:40.025Z,96.04
2023-09-09T08:25:09.564Z,95.69
2023-09-09T08:27:44.093Z,96.29
2023-09-09T08:30:18.269Z,97.43
2023-09-09T08:32:47.793Z,98.34
2023-09-09T08:35:26.235Z,96.47
2023-09-09T08:38:02.792Z,95.95
2023-09-09T08:40:39.632Z,95.64
2023-09-09T08:43:12.022Z,94.39
2023-09-09T08:45:59.788Z,92.89
2023-09-09T08:48:33.157Z,90.96
2023-09-09T08:51:01.361Z,90.22
2023-09-09T08:53:33.144Z,89.89
2023-09-09T08:56:01.853Z,89.76
2023-09-09T08:58:29.156Z,89.31
2023-09-09T09:00:56.221Z,89.63
2023-09-09T09:03:25.849Z,87.49
2023-09-09T09:06:00.560Z,86.29
2023-09-09T09:08:31.199Z,86.45
2023-09-09T09:11:02.592Z,85.66
2023-09-09T09:13:33.445Z,85.83
2023-09-09T09:16:09.583Z,83.72
2023-09-09T09:18:37.268Z,82.97
2023-09-09T09:21:11.373Z,82.10
2023-09-09T09:23:47.715Z,81.37
2023-09-09T09:26:24.418Z,81.55
2023-09-09T09:28:54.484Z,80.64
2023-09-09T09:31:25.553Z,79.35
2023-09-09T09:33:58.695Z,79.46
2023-09-09T09:36:28.679Z,78.55
2023-09-09T09:39:01.346Z,78.56
2023-09-09T09:41:29.284Z,76.44
2023-09-09T09:44:01.323Z,75.96
2023-09-09T09:46:36.442Z,74.74
2023-09-09T09:49:17.762Z,74.24
2023-09-09T09:51:47.614Z,74.01
2023-09-09T09:54:25.732Z,75.79
2023-09-09T09:57:05.476Z,75.19
2023-09-09T09:59:40.053Z,74.48
2023-09-09T10:02:15.665Z,74.87
2023-09-09T10:04:45.485Z,74.85
2023-09-09T10:07:27.556Z,76.02
2023-09-09T10:10:09.462Z,75.36
2023-09-09T10:13:02.364Z,72.29
2023-09-09T10:15:35.303Z,71.00
2023-09-09T10:18:03.812Z,69.97
2023-09-09T10:20:37.939Z,67.22
2023-09-09T10:23:08.659Z,65.96
2023-09-09T10:25:40.021Z,63.57
2023-09-09T10:28:09.202Z,64.09
2023-09-09T10:30:43.786Z,64.47
2023-09-09T10:33:17.266Z,62.50
2023-09-09T10:35:54.568Z,62.07
2023-09-09T10:38:26.531Z,60.83
2023-09-09T10:40:59.536Z,59.55
2023-09-09T10:43:35.401Z,59.41
2023-09-09T10:46:04.699Z,60.20
2023-09-09T10:48:33.955Z,62.07
2023-09-09T10:51:12.887Z,60.63
2023-09-09T10:53:46.207Z,59.56
2023-09-09T10:56:18.125Z,58.72
2023-09-09T10:58:48.338Z,59.63
2023-09-09T11:01:27.862Z,59.31
2023-09-09T11:04:05.691Z,59.28
2023-09-09T11:06:33.086Z,60.15
2023-09-09T11:09:06.624Z,58.73
2023-09-09T11:11:43.220Z,59.74
2023-09-09T11:14:16.974Z,59.69
2023-09-09T11:16:47.139Z,58.72
2023-09-09T11:19:17.853Z,58.94
2023-09-09T11:21:48.977Z,60.69
2023-09-09T11:24:16.139Z,60.47
2023-09-09T11:26:50.706Z,58.21
2023-09-09T11:29:36.484Z,57.79
2023-09-09T11:32:12.293Z,57.99
2023-09-09T11:34:50.811Z,55.04
2023-09-09T11:37:20.460Z,54.56
2023-09-09T11:39:55.330Z,56.00
2023-09-09T11:42:25.411Z,54.55
2023-09-09T11:44:54.974Z,55.85
2023-09-09T11:47:26.242Z,55.22
2023-09-09T11:49:58.663Z,53.85
2023-09-09T11:52:34.546Z,51.90
2023-09-09T11:55:03.627Z,52.56
2023-09-09T11:57:33.029Z,52.34
2023-09-09T12:00:08.302Z,49.98
2023-09-09T12:02:40.662Z,48.74
2023-09-09T12:05:13.332Z,48.36
2023-09-09T12:07:50.606Z,45.20
2023-09-09T12:10:26.282Z,45.88
2023-09-09T12:12:58.956Z,45.97
2023-09-09T12:15:33.829Z,44.68
2023-09-09T12:18:13.636Z,45.51
2023-09-09T12:21:18.976Z,44.94
2023-09-09T12:23:53.763Z,44.32
2023-09-09T12:26:26.368Z,44.42
2023-09-09T12:29:15.642Z,44.09
2023-09-09T12:32:01.514Z,43.47
2023-09-09T12:34:28.749Z,41.61
2023-09-09T12:37:05.658Z,40.37
2023-09-09T12:39:37.731Z,42.08
2023-09-09T12:42:13.248Z,42.55
2023-09-09T12:44:52.388Z,41.63
2023-09-09T12:47:25.997Z,39.94
2023-09-09T12:49:55.948Z,39.81
2023-09-09T12:52:25.564Z,39.46
2023-09-09T12:54:54.847Z,39.29
2023-09-09T12:57:26.884Z,39.48
2023-09-09T12:59:59.225Z,39.01
2023-09-09T13:02:28.746Z,38.91
2023-09-09T13:05:02.359Z,39.71
2023-09-09T13:07:31.938Z,39.41
2023-09-09T13:10:01.778Z,40.81
2023-09-09T13:12:31.061Z,41.26
2023-09-09T13:15:00.538Z,40.67
2023-09-09T13:17:30.023Z,40.06
2023-09-09T13:20:05.458Z,39.96
2023-09-09T13:22:38.325Z,39.23
2023-09-09T13:25:11.056Z,38.69
2023-09-09T13:27:41.244Z,39.93
2023-09-09T13:30:13.744Z,38.99
2023-09-09T13:32:46.410Z,39.21
2023-09-09T13:35:18.465Z,38.27
2023-09-09T13:37:48.285Z,37.08
2023-09-09T13:40:21.417Z,35.63
2023-09-09T13:42:56.691Z,36.57
2023-09-09T13:45:32.205Z,38.01
2023-09-09T13:48:04.176Z,38.65
2023-09-09T13:50:39.004Z,37.98
2023-09-09T13:53:08.647Z,38.00
2023-09-09T13:55:35.146Z,37.00
2023-09-09T13:58:01.620Z,36.87
2023-09-09T14:00:28.183Z,37.45
2023-09-09T14:02:54.776Z,36.71
2023-09-09T14:05:24.817Z,35.48
2023-09-09T14:07:53.760Z,35.39
2023-09-09T14:10:25.886Z,35.39
2023-09-09T14:12:55.645Z,34.94
2023-09-09T14:15:25.206Z,34.67
2023-09-09T14:17:57.824Z,34.84
2023-09-09T14:20:33.453Z,35.05
2023-09-09T14:23:05.325Z,32.08
2023-09-09T14:25:36.110Z,32.07
2023-09-09T14:28:07.432Z,32.89
2023-09-09T14:30:42.574Z,34.01
2023-09-09T14:33:11.552Z,34.07
2023-09-09T14:35:45.539Z,35.09
2023-09-09T14:38:15.326Z,34.75
2023-09-09T14:40:47.242Z,34.69
2023-09-09T14:43:19.633Z,35.00
2023-09-09T14:45:49.722Z,35.67
2023-09-09T14:48:24.882Z,36.77
2023-09-09T14:50:55.929Z,36.72
2023-09-09T14:53:22.932Z,38.28
2023-09-09T14:55:58.116Z,42.35
2023-09-09T14:58:25.772Z,41.16
2023-09-09T15:01:00.284Z,41.60
2023-09-09T15:03:40.070Z,43.31
2023-09-09T15:06:12.562Z,45.12
2023-09-09T15:08:45.875Z,46.42
2023-09-09T15:11:18.290Z,46.19
2023-09-09T15:13:50.056Z,45.77
2023-09-09T15:16:26.664Z,46.09
2023-09-09T15:18:56.391Z,46.23
2023-09-09T15:21:28.937Z,46.91
2023-09-09T15:24:00.511Z,46.68
2023-09-09T15:26:38.237Z,46.88
2023-09-09T15:29:05.912Z,47.36
2023-09-09T15:31:38.809Z,46.81
2023-09-09T15:34:10.952Z,47.66
2023-09-09T15:36:43.129Z,46.74
2023-09-09T15:39:14.823Z,46.39
2023-09-09T15:41:47.282Z,47.11
2023-09-09T15:44:19.230Z,47.49
2023-09-09T15:46:49.013Z,47.72
2023-09-09T15:49:24.141Z,48.20
2023-09-09T15:51:53.478Z,47.74
2023-09-09T15:54:25.906Z,48.15
2023-09-09T15:56:57.885Z,46.86
2023-09-09T15:59:29.912Z,46.53
2023-09-09T16:01:59.362Z,45.61
2023-09-09T16:04:37.386Z,45.36
2023-09-09T16:07:10.685Z,46.66
2023-09-09T16:09:43.352Z,47.30
2023-09-09T16:12:12.767Z,48.27
2023-09-09T16:14:42.240Z,48.60
2023-09-09T16:17:22.805Z,49.48
2023-09-09T16:19:55.641Z,51.12
2023-09-09T16:22:30.757Z,51.97
2023-09-09T16:25:06.433Z,52.12
2023-09-09T16:27:36.392Z,52.56
2023-09-09T16:30:12.870Z,53.48
2023-09-09T16:32:45.281Z,53.16
2023-09-09T16:35:16.578Z,52.90
2023-09-09T16:37:55.234Z,52.50
2023-09-09T16:40:27.257Z,51.74
2023-09-09T16:42:56.657Z,51.79
2023-09-09T16:45:28.960Z,51.52
2023-09-09T16:48:01.154Z,51.36
2023-09-09T16:50:37.388Z,51.99
2023-09-09T16:53:14.082Z,52.75
2023-09-09T16:55:46.883Z,52.69
2023-09-09T16:58:16.390Z,53.25
2023-09-09T17:00:49.954Z,53.74
2023-09-09T17:03:16.997Z,54.69
2023-09-09T17:05:46.057Z,56.15
2023-09-09T17:08:15.527Z,56.65
2023-09-09T17:10:47.960Z,57.54
2023-09-09T17:13:23.900Z,58.51
2023-09-09T17:15:56.289Z,58.85
2023-09-09T17:18:29.214Z,59.80
2023-09-09T17:21:06.828Z,61.45
2023-09-09T17:23:37.357Z,60.91
2023-09-09T17:26:09.967Z,61.95
2023-09-09T17:28:39.599Z,61.57
2023-09-09T17:31:11.336Z,61.52
2023-09-09T17:33:46.911Z,61.52
2023-09-09T17:36:19.234Z,62.27
2023-09-09T17:38:54.747Z,63.73
2023-09-09T17:41:27.198Z,64.95
2023-09-09T17:43:59.318Z,66.01
2023-09-09T17:46:31.965Z,67.20
2023-09-09T17:49:05.086Z,67.31
2023-09-09T17:51:40.273Z,68.81
2023-09-09T17:54:15.769Z,68.23
2023-09-09T17:56:53.857Z,68.34
2023-09-09T17:59:30.154Z,69.44
2023-09-09T18:02:02.264Z,71.01
2023-09-09T18:04:37.379Z,71.96
2023-09-09T18:07:04.621Z,73.32
2023-09-09T18:09:34.593Z,74.80
2023-09-09T18:12:08.055Z,76.01
2023-09-09T18:14:43.328Z,76.47
2023-09-09T18:17:16.055Z,76.62
2023-09-09T18:19:48.576Z,76.77
2023-09-09T18:22:18.588Z,77.90
2023-09-09T18:24:47.829Z,80.47
2023-09-09T18:27:14.551Z,81.08
2023-09-09T18:29:46.651Z,82.23
2023-09-09T18:32:18.999Z,83.55
2023-09-09T18:34:46.175Z,85.05
2023-09-09T18:37:18.629Z,85.13
2023-09-09T18:39:47.612Z,85.38
2023-09-09T18:42:19.117Z,86.48
2023-09-09T18:44:48.252Z,87.33
2023-09-09T18:47:23.189Z,87.36
2023-09-09T18:49:55.759Z,88.18
2023-09-09T18:52:28.516Z,89.13
2023-09-09T18:54:58.077Z,90.70
2023-09-09T18:57:26.073Z,91.64
2023-09-09T18:59:55.335Z,92.43
2023-09-09T19:02:29.889Z,92.58
2023-09-09T19:04:57.432Z,94.49
2023-09-09T19:07:37.030Z,96.26
2023-09-09T19:10:07.501Z,96.77
2023-09-09T19:12:42.036Z,98.65
2023-09-09T19:15:14.049Z,99.29
2023-09-09T19:17:46.281Z,100.00
2023-09-09T19:20:16.272Z,100.00
2023-09-09T19:22:48.408Z,100.00
2023-09-09T19:25:26.298Z,100.00
2023-09-09T19:28:00.748Z,100.00
2023-09-09T19:30:33.092Z,100.00
2023-09-09T19:33:13.264Z,100.00
2023-09-09T19:35:51.272Z,100.00
2023-09-09T19:38:22.569Z,100.00
2023-09-09T19:40:50.041Z,100.00
2023-09-09T19:43:21.897Z,100.00
2023-09-09T19:45:54.084Z,100.00
2023-09-09T19:48:26.073Z,100.00
2023-09-09T19:50:58.774Z,100.00
2023-09-09T19:53:26.639Z,100.00
2023-09-09T19:55:58.716Z,100.00
2023-09-09T19:58:30.372Z,100.00
2023-09-09T20:01:02.294Z,100.00
2023-09-09T20:03:32.254Z,100.00
2023-09-09T20:06:08.064Z,100.00
2023-09-09T20:08:40.905Z,100.00
2023-09-09T20:11:10.159Z,100.00
2023-09-09T20:13:39.828Z,100.00
2023-09-09T20:16:09.824Z,100.00
2023-09-09T20:18:41.925Z,100.00
2023-09-09T20:21:11.547Z,100.00
2023-09-09T20:23:46.431Z,100.00
2023-09-09T20:26:24.378Z,100.00
2023-09-09T20:28:56.762Z,100.00
2023-09-09T20:31:31.877Z,100.00
2023-09-09T20:34:06.402Z,100.00
2023-09-09T20:36:40.476Z,100.00
2023-09-09T20:39:11.640Z,100.00
2023-09-09T20:41:50.423Z,100.00
2023-09-09T20:44:21.889Z,100.00
2023-09-09T20:46:51.186Z,100.00
2023-09-09T20:49:22.667Z,100.00
2023-09-09T20:51:55.110Z,100.00
2023-09-09T20:54:27.926Z,100.00
2023-09-09T20:56:56.891Z,100.00
2023-09-09T20:59:29.003Z,100.00
2023-09-09T21:02:04.235Z,100.00
2023-09-09T21:04:37.107Z,100.00
2023-09-09T21:07:06.118Z,100.00
2023-09-09T21:09:38.367Z,100.00
2023-09-09T21:12:10.768Z,100.00
2023-09-09T21:14:45.243Z,100.00
2023-09-09T21:17:14.286Z,100.00
2023-09-09T21:19:49.820Z,100.00
2023-09-09T21:22:16.415Z,100.00
2023-09-09T21:24:49.230Z,100.00
2023-09-09T21:27:21.657Z,100.00
2023-09-09T21:29:53.018Z,100.00
2023-09-09T21:32:26.351Z,100.00
2023-09-09T21:34:55.867Z,100.00
2023-09-09T21:37:30.562Z,100.00
2023-09-09T21:40:02.666Z,100.00
2023-09-09T21:42:32.416Z,100.00
2023-09-09T21:45:04.602Z,100.00
2023-09-09T21:47:35.949Z,100.00
2023-09-09T21:50:05.755Z,100.00
2023-09-09T21:52:39.940Z,100.00
2023-09-09T21:55:13.193Z,100.00
2023-09-09T21:57:44.450Z,100.00
2023-09-09T22:00:28.791Z,100.00
2023-09-09T22:03:00.982Z,100.00
2023-09-09T22:05:30.351Z,100.00
2023-09-09T22:08:04.647Z,100.00
2023-09-09T22:10:39.961Z,100.00
2023-09-09T22:13:11.593Z,100.00
2023-09-09T22:15:43.568Z,100.00
2023-09-09T22:18:13.277Z,100.00
2023-09-09T22:20:45.618Z,100.00
2023-09-09T22:23:15.398Z,100.00
2023-09-09T22:25:47.791Z,100.00
2023-09-09T22:28:17.469Z,100.00
2023-09-09T22:30:46.153Z,100.00
2023-09-09T22:33:18.708Z,100.00
2023-09-09T22:35:48.156Z,100.00
2023-09-09T22:38:17.473Z,100.00
2023-09-09T22:40:49.144Z,100.00
2023-09-09T22:43:20.614Z,100.00
2023-09-09T22:45:52.445Z,100.00
2023-09-09T22:48:24.474Z,100.00
2023-09-09T22:50:53.672Z,100.00
2023-09-09T22:53:31.211Z,100.00
2023-09-09T22:56:03.735Z,100.00
2023-09-09T22:58:34.544Z,100.00
2023-09-09T23:01:08.213Z,100.00
2023-09-09T23:03:40.286Z,100.00
2023-09-09T23:06:09.733Z,100.00
2023-09-09T23:08:36.711Z,100.00
2023-09-09T23:11:14.139Z,100.00
2023-09-09T23:13:46.162Z,100.00
2023-09-09T23:16:16.838Z,100.00
2023-09-09T23:18:46.296Z,100.00
2023-09-09T23:21:15.302Z,100.00
2023-09-09T23:23:50.336Z,100.00
2023-09-09T23:26:25.332Z,100.00
2023-09-09T23:28:58.622Z,100.00
2023-09-09T23:31:25.547Z,100.00
2023-09-09T23:33:54.635Z,100.00
2023-09-09T23:36:26.803Z,100.00
2023-09-09T23:39:02.758Z,100.00
2023-09-09T23:41:38.565Z,100.00
2023-09-09T23:44:05.864Z,100.00
2023-09-09T23:46:40.408Z,100.00
2023-09-09T23:49:08.898Z,100.00
2023-09-09T23:51:36.045Z,100.00
2023-09-09T23:54:04.147Z,100.00
2023-09-09T23:56:31.058Z,100.00
2023-09-09T23:59:00.548Z,100.00
